createdAt,value
2023-10-21T00:00:19.761Z,96768.73
2023-10-21T00:03:57.841Z,96764.66
2023-10-21T00:07:25.474Z,96766.10
2023-10-21T00:15:35.422Z,96773.90
2023-10-21T00:18:24.930Z,96786.86
2023-10-21T00:22:14.584Z,96789.73
2023-10-21T00:25:52.693Z,96805.02
2023-10-21T00:29:42.041Z,96821.91
2023-10-21T00:33:21.667Z,96817.50
2023-10-21T00:36:38.898Z,96830.10
2023-10-21T00:40:15.930Z,96832.03
2023-10-21T00:44:05.614Z,96837.44
2023-10-21T00:47:31.156Z,96839.54
2023-10-21T00:51:23.023Z,96837.11
2023-10-21T00:54:55.316Z,96836.23
2023-10-21T00:58:33.874Z,96845.90
2023-10-21T01:01:58.696Z,96844.76
2023-10-21T01:10:11.454Z,96856.83
2023-10-21T01:13:42.462Z,96857.50
2023-10-21T01:17:11.332Z,96859.83
2023-10-21T01:21:03.270Z,96860.30
2023-10-21T01:24:38.287Z,96867.12
2023-10-21T01:28:13.523Z,96872.41
2023-10-21T01:31:45.769Z,96868.52
2023-10-21T01:35:08.732Z,96867.17
2023-10-21T01:38:36.231Z,96867.57
2023-10-21T01:42:00.515Z,96860.02
2023-10-21T01:45:31.282Z,96857.36
2023-10-21T01:48:55.270Z,96848.33
2023-10-21T01:52:24.340Z,96850.56
2023-10-21T01:55:54.414Z,96835.86
2023-10-21T01:59:34.303Z,96835.23
2023-10-21T02:02:52.206Z,96830.88
2023-10-21T02:06:06.368Z,96826.39
2023-10-21T02:09:31.831Z,96824.02
2023-10-21T02:13:06.029Z,96832.20
2023-10-21T02:16:50.267Z,96830.01
2023-10-21T02:20:19.468Z,96835.66
2023-10-21T02:24:03.249Z,96837.36
2023-10-21T02:28:21.714Z,96852.48
2023-10-21T02:31:55.406Z,96867.64
2023-10-21T02:35:44.031Z,96882.02
2023-10-21T02:39:17.398Z,96893.30
2023-10-21T02:42:56.010Z,96899.65
2023-10-21T02:46:50.046Z,96901.04
2023-10-21T02:50:53.466Z,96903.29
2023-10-21T02:58:58.192Z,96918.69
2023-10-21T03:02:47.482Z,96920.14
2023-10-21T03:11:03.787Z,96928.19
2023-10-21T03:14:31.209Z,96926.11
2023-10-21T03:18:20.230Z,96929.86
2023-10-21T03:21:58.435Z,96930.30
2023-10-21T03:25:46.992Z,96930.56
2023-10-21T03:29:14.416Z,96943.13
2023-10-21T03:33:04.020Z,96940.69
2023-10-21T03:36:35.901Z,96940.05
2023-10-21T03:40:16.937Z,96940.64
2023-10-21T03:43:57.494Z,96936.55
2023-10-21T03:47:45.903Z,96929.06
2023-10-21T03:51:11.881Z,96924.64
2023-10-21T03:54:43.965Z,96922.38
2023-10-21T03:58:14.688Z,96918.94
2023-10-21T04:01:38.637Z,96923.09
2023-10-21T04:05:16.552Z,96929.25
2023-10-21T04:08:53.429Z,96922.40
2023-10-21T04:12:26.586Z,96924.80
2023-10-21T04:15:59.057Z,96929.38
2023-10-21T04:19:37.189Z,96925.61
2023-10-21T04:23:07.129Z,96926.95
2023-10-21T04:26:49.801Z,96931.85
2023-10-21T04:30:26.345Z,96940.77
2023-10-21T04:33:47.083Z,96938.55
2023-10-21T04:37:07.525Z,96938.73
2023-10-21T04:40:55.639Z,96941.66
2023-10-21T04:44:06.607Z,96947.88
2023-10-21T04:47:23.376Z,96953.35
2023-10-21T04:50:28.379Z,96957.82
2023-10-21T04:58:32.458Z,96973.35
2023-10-21T05:02:10.918Z,96976.94
2023-10-21T05:05:53.523Z,96981.80
2023-10-21T05:09:07.023Z,96991.77
2023-10-21T05:12:34.436Z,96995.02
2023-10-21T05:15:54.940Z,97004.36
2023-10-21T05:19:33.329Z,97008.62
2023-10-21T05:23:08.354Z,97018.08
2023-10-21T05:26:54.343Z,97021.73
2023-10-21T05:30:32.540Z,97026.93
2023-10-21T05:34:12.578Z,97019.92
2023-10-21T05:37:42.266Z,97023.85
2023-10-21T05:41:06.524Z,97029.88
2023-10-21T05:44:47.674Z,97021.88
2023-10-21T05:47:47.381Z,97020.84
2023-10-21T05:50:42.660Z,97019.83
2023-10-21T05:54:12.936Z,97022.75
2023-10-21T05:57:44.305Z,97024.99
2023-10-21T06:00:57.069Z,97028.25
2023-10-21T06:04:09.711Z,97024.58
2023-10-21T06:07:35.303Z,97024.66
2023-10-21T06:10:47.622Z,97035.48
2023-10-21T06:13:44.805Z,97039.60
2023-10-21T06:16:46.191Z,97041.12
2023-10-21T06:19:43.939Z,97038.98
2023-10-21T06:23:03.915Z,97043.17
2023-10-21T06:26:15.805Z,97045.67
2023-10-21T06:28:53.487Z,97052.73
2023-10-21T06:31:33.163Z,97053.63
2023-10-21T06:34:51.653Z,97056.85
2023-10-21T06:37:52.549Z,97056.11
2023-10-21T06:41:22.009Z,97062.27
2023-10-21T06:44:38.240Z,97063.48
2023-10-21T06:48:11.972Z,97064.52
2023-10-21T06:51:32.239Z,97072.98
2023-10-21T06:54:30.172Z,97076.71
2023-10-21T06:57:45.284Z,97081.20
2023-10-21T07:01:03.262Z,97086.02
2023-10-21T07:04:29.680Z,97090.94
2023-10-21T07:07:34.264Z,97096.89
2023-10-21T07:10:58.967Z,97094.56
2023-10-21T07:14:13.569Z,97100.65
2023-10-21T07:17:56.808Z,97108.10
2023-10-21T07:21:51.130Z,97111.39
2023-10-21T07:25:38.078Z,97117.77
2023-10-21T07:28:44.061Z,97121.16
2023-10-21T07:32:40.586Z,97122.15
2023-10-21T07:35:35.202Z,97118.60
2023-10-21T07:38:20.379Z,97113.35
2023-10-21T07:41:49.490Z,97113.44
2023-10-21T07:45:11.478Z,97112.84
2023-10-21T07:48:24.094Z,97115.04
2023-10-21T07:51:41.939Z,97116.92
2023-10-21T07:55:13.643Z,97112.40
2023-10-21T07:58:31.286Z,97111.60
2023-10-21T08:01:29.275Z,97116.55
2023-10-21T08:05:04.271Z,97107.95
2023-10-21T08:07:53.292Z,97114.11
2023-10-21T08:11:02.118Z,97109.99
2023-10-21T08:14:49.114Z,97113.73
2023-10-21T08:19:05.001Z,97119.06
2023-10-21T08:32:03.653Z,97126.10
2023-10-21T08:43:02.107Z,97131.61
2023-10-21T08:46:57.671Z,97135.86
2023-10-21T08:50:39.617Z,97133.70
2023-10-21T08:54:10.537Z,97135.84
2023-10-21T08:58:00.827Z,97135.78
2023-10-21T09:01:09.982Z,97136.00
2023-10-21T09:04:06.960Z,97142.09
2023-10-21T09:12:15.140Z,97148.11
2023-10-21T09:27:32.283Z,97147.83
2023-10-21T09:43:05.277Z,97159.30
2023-10-21T09:46:50.875Z,97156.60
2023-10-21T09:50:48.744Z,97158.42
2023-10-21T09:59:05.116Z,97154.82
2023-10-21T10:26:32.408Z,97155.85
2023-10-21T10:39:23.010Z,97136.05
2023-10-21T10:47:11.803Z,97130.27
2023-10-21T10:50:24.609Z,97125.39
2023-10-21T10:54:04.191Z,97127.71
2023-10-21T10:57:20.561Z,97121.80
2023-10-21T11:00:31.219Z,97123.61
2023-10-21T11:03:54.154Z,97123.64
2023-10-21T11:07:06.730Z,97125.09
2023-10-21T11:09:52.387Z,97134.23
2023-10-21T11:12:54.097Z,97126.86
2023-10-21T11:15:27.998Z,97123.86
2023-10-21T11:18:20.912Z,97119.05
2023-10-21T11:21:01.671Z,97128.27
2023-10-21T11:24:12.382Z,97131.61
2023-10-21T11:27:01.411Z,97133.33
2023-10-21T11:29:43.271Z,97130.16
2023-10-21T11:32:50.177Z,97133.09
2023-10-21T11:35:44.891Z,97141.03
2023-10-21T11:38:53.513Z,97137.77
2023-10-21T11:41:25.027Z,97141.19
2023-10-21T11:43:57.561Z,97143.83
2023-10-21T11:46:32.660Z,97143.95
2023-10-21T11:49:15.096Z,97143.23
2023-10-21T11:52:02.418Z,97139.17
2023-10-21T11:55:10.616Z,97140.21
2023-10-21T11:57:51.889Z,97140.46
2023-10-21T12:01:41.709Z,97144.16
2023-10-21T12:04:52.432Z,97140.73
2023-10-21T12:07:48.603Z,97140.23
2023-10-21T12:10:17.543Z,97146.16
2023-10-21T12:13:07.778Z,97151.88
2023-10-21T12:16:23.929Z,97159.23
2023-10-21T12:19:18.827Z,97162.34
2023-10-21T12:22:36.166Z,97159.79
2023-10-21T12:25:12.723Z,97162.90
2023-10-21T12:28:18.178Z,97166.67
2023-10-21T12:31:51.732Z,97167.05
2023-10-21T12:34:52.166Z,97160.81
2023-10-21T12:38:11.510Z,97155.66
2023-10-21T12:41:19.655Z,97160.21
2023-10-21T12:48:44.489Z,97159.49
2023-10-21T12:51:32.945Z,97163.28
2023-10-21T12:54:14.078Z,97163.59
2023-10-21T12:56:51.677Z,97162.36
2023-10-21T12:59:26.197Z,97162.84
2023-10-21T13:02:48.707Z,97165.40
2023-10-21T13:06:19.597Z,97170.30
2023-10-21T13:09:13.454Z,97176.20
2023-10-21T13:11:42.279Z,97174.20
2023-10-21T13:14:11.047Z,97174.20
2023-10-21T13:16:46.771Z,97174.26
2023-10-21T13:19:47.508Z,97174.83
2023-10-21T13:27:16.277Z,97175.19
2023-10-21T13:29:56.853Z,97175.33
2023-10-21T13:32:49.377Z,97177.70
2023-10-21T13:35:35.975Z,97178.27
2023-10-21T13:38:22.846Z,97172.89
2023-10-21T13:41:01.019Z,97179.06
2023-10-21T13:43:45.830Z,97181.71
2023-10-21T13:46:29.079Z,97177.80
2023-10-21T13:50:09.377Z,97180.41
2023-10-21T13:52:41.623Z,97185.82
2023-10-21T13:55:23.928Z,97187.48
2023-10-21T13:58:06.734Z,97180.34
2023-10-21T14:00:44.060Z,97184.97
2023-10-21T14:03:25.734Z,97187.16
2023-10-21T14:06:12.951Z,97195.35
2023-10-21T14:08:41.871Z,97197.38
2023-10-21T14:11:51.268Z,97197.35
2023-10-21T14:15:11.745Z,97195.90
2023-10-21T14:17:49.955Z,97206.55
2023-10-21T14:20:22.454Z,97211.10
2023-10-21T14:22:53.887Z,97213.27
2023-10-21T14:25:54.864Z,97218.55
2023-10-21T14:28:54.557Z,97225.11
2023-10-21T14:31:46.985Z,97222.45
2023-10-21T14:34:21.138Z,97221.41
2023-10-21T14:37:21.806Z,97227.33
2023-10-21T14:45:04.317Z,97225.83
2023-10-21T14:47:45.745Z,97235.10
2023-10-21T14:50:30.934Z,97234.23
2023-10-21T14:53:14.254Z,97236.70
2023-10-21T14:56:46.704Z,97236.29
2023-10-21T14:59:32.944Z,97238.02
2023-10-21T15:02:28.498Z,97247.10
2023-10-21T15:05:19.211Z,97247.09
2023-10-21T15:08:05.937Z,97244.81
2023-10-21T15:12:19.860Z,97245.77
2023-10-21T15:16:15.995Z,97249.94
2023-10-21T15:20:24.968Z,97247.44
2023-10-21T15:23:51.584Z,97247.42
2023-10-21T15:27:42.086Z,97253.80
2023-10-21T16:03:24.023Z,97297.48
2023-10-21T16:33:30.787Z,97325.41
2023-10-21T16:47:51.962Z,97352.10
2023-10-21T17:06:01.432Z,97353.67
2023-10-21T17:09:14.911Z,97346.97
2023-10-21T17:48:52.314Z,97374.98
2023-10-21T17:55:56.419Z,97382.01
2023-10-21T17:59:32.191Z,97390.09
2023-10-21T18:03:14.913Z,97395.30
2023-10-21T18:06:55.396Z,97399.84
2023-10-21T18:10:16.656Z,97404.46
2023-10-21T18:13:36.667Z,97408.50
2023-10-21T18:17:41.286Z,97410.84
2023-10-21T18:20:48.586Z,97408.83
2023-10-21T18:24:21.480Z,97409.67
2023-10-21T18:28:14.636Z,97410.96
2023-10-21T18:31:40.476Z,97416.63
2023-10-21T18:34:43.160Z,97420.45
2023-10-21T18:38:33.069Z,97434.16
2023-10-21T18:41:52.591Z,97449.34
2023-10-21T18:44:48.821Z,97448.32
2023-10-21T18:48:24.507Z,97453.41
2023-10-21T18:52:17.228Z,97467.70
2023-10-21T19:00:07.669Z,97485.19
2023-10-21T19:10:47.765Z,97483.66
2023-10-21T19:14:22.931Z,97489.80
2023-10-21T19:18:12.111Z,97484.95
2023-10-21T19:21:58.434Z,97487.49
2023-10-21T19:25:29.507Z,97479.77
2023-10-21T19:29:24.199Z,97481.15
2023-10-21T19:40:11.756Z,97478.61
2023-10-21T19:43:50.155Z,97484.85
2023-10-21T19:47:33.283Z,97480.67
2023-10-21T19:51:15.018Z,97490.38
2023-10-21T19:54:50.328Z,97490.15
2023-10-21T19:58:20.888Z,97488.70
2023-10-21T20:02:00.154Z,97489.49
2023-10-21T20:05:18.772Z,97485.23
2023-10-21T20:08:43.871Z,97482.50
2023-10-21T20:12:48.655Z,97490.54
2023-10-21T20:16:24.250Z,97486.14
2023-10-21T20:20:06.288Z,97482.77
2023-10-21T20:23:55.850Z,97472.11
2023-10-21T20:27:42.552Z,97480.31
2023-10-21T20:30:50.559Z,97480.60
2023-10-21T20:34:08.206Z,97479.99
2023-10-21T20:37:32.599Z,97481.05
2023-10-21T20:41:12.545Z,97480.63
2023-10-21T20:44:31.859Z,97474.80
2023-10-21T20:47:48.453Z,97474.27
2023-10-21T20:50:59.407Z,97472.83
2023-10-21T20:53:55.161Z,97472.21
2023-10-21T20:57:34.918Z,97471.67
2023-10-21T21:00:43.675Z,97477.17
2023-10-21T21:03:43.654Z,97474.30
2023-10-21T21:06:41.912Z,97477.85
2023-10-21T21:09:29.215Z,97476.27
2023-10-21T21:12:26.766Z,97474.89
2023-10-21T21:15:13.766Z,97476.13
2023-10-21T21:18:13.234Z,97475.30
2023-10-21T21:21:08.852Z,97471.77
2023-10-21T21:24:15.613Z,97471.11
2023-10-21T21:26:59.252Z,97468.36
2023-10-21T21:29:59.021Z,97464.06
2023-10-21T21:32:33.541Z,97471.20
2023-10-21T21:35:48.949Z,97470.52
2023-10-21T21:38:38.349Z,97466.77
2023-10-21T21:41:38.077Z,97467.40
2023-10-21T21:44:29.697Z,97466.42
2023-10-21T21:47:17.037Z,97469.20
2023-10-21T21:50:26.065Z,97465.02
2023-10-21T21:53:36.734Z,97464.80
2023-10-21T21:57:07.579Z,97459.07
2023-10-21T22:00:45.828Z,97447.08
2023-10-21T22:04:25.657Z,97445.55
2023-10-21T22:07:50.443Z,97446.02
2023-10-21T22:10:53.497Z,97448.05
2023-10-21T22:13:58.508Z,97443.93
2023-10-21T22:17:25.615Z,97443.97
2023-10-21T22:20:59.432Z,97441.27
2023-10-21T22:24:10.456Z,97440.88
2023-10-21T22:27:03.357Z,97447.14
2023-10-21T22:30:05.507Z,97445.88
2023-10-21T22:33:14.491Z,97448.22
2023-10-21T22:36:33.852Z,97449.17
2023-10-21T22:39:36.267Z,97445.17
2023-10-21T22:43:19.669Z,97445.17
2023-10-21T22:47:07.661Z,97447.20
2023-10-21T22:50:38.549Z,97448.44
2023-10-21T22:54:14.353Z,97448.80
2023-10-21T22:57:52.854Z,97454.98
2023-10-21T23:01:32.738Z,97453.67
2023-10-21T23:05:17.233Z,97455.16
2023-10-21T23:09:08.425Z,97457.84
2023-10-21T23:12:22.906Z,97452.98
2023-10-21T23:15:25.415Z,97456.11
2023-10-21T23:18:42.892Z,97454.64
2023-10-21T23:21:47.352Z,97460.02
2023-10-21T23:24:54.661Z,97466.17
2023-10-21T23:28:04.695Z,97468.63
2023-10-21T23:31:17.317Z,97468.61
2023-10-21T23:34:37.563Z,97466.20
2023-10-21T23:37:32.501Z,97459.55
2023-10-21T23:40:38.373Z,97464.95
2023-10-21T23:43:40.154Z,97467.42
2023-10-21T23:46:55.975Z,97463.50
2023-10-21T23:49:54.977Z,97460.95
2023-10-21T23:52:43.177Z,97455.36
2023-10-21T23:56:25.007Z,97459.34
